sensor_id;sensor_type;location;lat;lon;timestamp;pressure;altitude;pressure_sealevel;temperature;humidity
51781;BME280;37844;57.126;24.288;2023-09-30T00:00:55;101244.78;;;18.18;100.00
51781;BME280;37844;57.126;24.288;2023-09-30T00:03:40;101245.69;;;18.14;100.00
51781;BME280;37844;57.126;24.288;2023-09-30T00:06:24;101239.66;;;18.07;100.00
51781;BME280;37844;57.126;24.288;2023-09-30T00:09:21;101244.03;;;18.08;100.00
51781;BME280;37844;57.126;24.288;2023-09-30T00:12:05;101244.03;;;18.07;100.00
51781;BME280;37844;57.126;24.288;2023-09-30T00:14:50;101239.72;;;18.04;100.00
51781;BME280;37844;57.126;24.288;2023-09-30T00:17:34;101234.53;;;17.98;100.00
51781;BME280;37844;57.126;24.288;2023-09-30T00:20:18;101237.09;;;18.04;100.00
51781;BME280;37844;57.126;24.288;2023-09-30T00:23:02;101231.13;;;17.93;100.00
51781;BME280;37844;57.126;24.288;2023-09-30T00:25:47;101245.09;;;17.79;100.00
51781;BME280;37844;57.126;24.288;2023-09-30T00:28:32;101238.22;;;17.75;100.00
51781;BME280;37844;57.126;24.288;2023-09-30T00:31:16;101245.25;;;17.66;100.00
51781;BME280;37844;57.126;24.288;2023-09-30T00:34:01;101242.59;;;17.69;100.00
51781;BME280;37844;57.126;24.288;2023-09-30T00:36:45;101244.34;;;17.67;100.00
51781;BME280;37844;57.126;24.288;2023-09-30T00:39:29;101234.81;;;17.64;100.00
51781;BME280;37844;57.126;24.288;2023-09-30T00:42:14;101233.97;;;17.62;100.00
51781;BME280;37844;57.126;24.288;2023-09-30T00:44:58;101227.91;;;17.62;100.00
51781;BME280;37844;57.126;24.288;2023-09-30T00:47:43;101228.81;;;17.54;100.00
51781;BME280;37844;57.126;24.288;2023-09-30T00:50:27;101214.94;;;17.52;100.00
51781;BME280;37844;57.126;24.288;2023-09-30T00:53:12;101211.50;;;17.49;100.00
51781;BME280;37844;57.126;24.288;2023-09-30T00:55:58;101208.75;;;17.66;100.00
51781;BME280;37844;57.126;24.288;2023-09-30T00:58:43;101213.97;;;17.63;100.00
51781;BME280;37844;57.126;24.288;2023-09-30T01:01:27;101209.72;;;17.52;100.00
51781;BME280;37844;57.126;24.288;2023-09-30T01:04:12;101211.50;;;17.49;100.00
51781;BME280;37844;57.126;24.288;2023-09-30T01:06:56;101211.50;;;17.46;100.00
51781;BME280;37844;57.126;24.288;2023-09-30T01:09:41;101200.16;;;17.54;100.00
51781;BME280;37844;57.126;24.288;2023-09-30T01:12:25;101196.66;;;17.55;100.00
51781;BME280;37844;57.126;24.288;2023-09-30T01:15:10;101193.25;;;17.49;100.00
51781;BME280;37844;57.126;24.288;2023-09-30T01:17:54;101187.16;;;17.48;100.00
51781;BME280;37844;57.126;24.288;2023-09-30T01:20:38;101191.50;;;17.46;100.00
51781;BME280;37844;57.126;24.288;2023-09-30T01:23:22;101184.63;;;17.42;100.00
51781;BME280;37844;57.126;24.288;2023-09-30T01:26:13;101175.91;;;17.43;100.00
51781;BME280;37844;57.126;24.288;2023-09-30T01:28:57;101186.34;;;17.43;100.00
51781;BME280;37844;57.126;24.288;2023-09-30T01:31:41;101185.56;;;17.32;100.00
51781;BME280;37844;57.126;24.288;2023-09-30T01:34:25;101185.59;;;17.27;100.00
51781;BME280;37844;57.126;24.288;2023-09-30T01:37:09;101173.38;;;17.37;100.00
51781;BME280;37844;57.126;24.288;2023-09-30T01:39:53;101174.22;;;17.36;100.00
51781;BME280;37844;57.126;24.288;2023-09-30T01:42:38;101168.09;;;17.43;100.00
51781;BME280;37844;57.126;24.288;2023-09-30T01:45:22;101161.09;;;17.51;100.00
51781;BME280;37844;57.126;24.288;2023-09-30T01:48:07;101159.38;;;17.49;100.00
51781;BME280;37844;57.126;24.288;2023-09-30T01:50:51;101159.31;;;17.55;100.00
51781;BME280;37844;57.126;24.288;2023-09-30T01:53:35;101148.88;;;17.56;100.00
51781;BME280;37844;57.126;24.288;2023-09-30T01:56:19;101158.38;;;17.60;100.00
51781;BME280;37844;57.126;24.288;2023-09-30T01:59:03;101154.09;;;17.53;100.00
51781;BME280;37844;57.126;24.288;2023-09-30T02:01:48;101154.09;;;17.56;100.00
51781;BME280;37844;57.126;24.288;2023-09-30T02:04:33;101166.28;;;17.53;100.00
51781;BME280;37844;57.126;24.288;2023-09-30T02:07:17;101158.56;;;17.41;100.00
51781;BME280;37844;57.126;24.288;2023-09-30T02:10:01;101157.66;;;17.45;100.00
51781;BME280;37844;57.126;24.288;2023-09-30T02:12:46;101158.56;;;17.42;100.00
51781;BME280;37844;57.126;24.288;2023-09-30T02:15:30;101157.63;;;17.48;100.00
51781;BME280;37844;57.126;24.288;2023-09-30T02:18:14;101149.00;;;17.41;100.00
51781;BME280;37844;57.126;24.288;2023-09-30T02:20:58;101152.41;;;17.48;100.00
51781;BME280;37844;57.126;24.288;2023-09-30T02:23:43;101150.66;;;17.48;100.00
51781;BME280;37844;57.126;24.288;2023-09-30T02:26:32;101145.53;;;17.42;100.00
51781;BME280;37844;57.126;24.288;2023-09-30T02:29:16;101152.38;;;17.52;100.00
51781;BME280;37844;57.126;24.288;2023-09-30T02:32:00;101153.22;;;17.56;100.00
51781;BME280;37844;57.126;24.288;2023-09-30T02:34:44;101146.28;;;17.55;100.00
51781;BME280;37844;57.126;24.288;2023-09-30T02:37:28;101141.00;;;17.58;100.00
51781;BME280;37844;57.126;24.288;2023-09-30T02:40:13;101139.31;;;17.57;100.00
51781;BME280;37844;57.126;24.288;2023-09-30T02:42:59;101149.78;;;17.51;100.00
51781;BME280;37844;57.126;24.288;2023-09-30T02:45:42;101146.28;;;17.55;100.00
51781;BME280;37844;57.126;24.288;2023-09-30T02:48:27;101145.44;;;17.51;100.00
51781;BME280;37844;57.126;24.288;2023-09-30T02:51:11;101136.72;;;17.54;100.00
51781;BME280;37844;57.126;24.288;2023-09-30T02:53:56;101147.97;;;17.57;100.00
51781;BME280;37844;57.126;24.288;2023-09-30T02:56:41;101147.13;;;17.57;100.00
51781;BME280;37844;57.126;24.288;2023-09-30T02:59:25;101133.28;;;17.52;100.00
51781;BME280;37844;57.126;24.288;2023-09-30T03:02:09;101128.19;;;17.40;100.00
51781;BME280;37844;57.126;24.288;2023-09-30T03:04:53;101146.28;;;17.55;100.00
51781;BME280;37844;57.126;24.288;2023-09-30T03:07:37;101133.31;;;17.47;100.00
51781;BME280;37844;57.126;24.288;2023-09-30T03:10:22;101129.03;;;17.40;100.00
51781;BME280;37844;57.126;24.288;2023-09-30T03:13:10;101120.47;;;17.26;100.00
51781;BME280;37844;57.126;24.288;2023-09-30T03:15:54;101119.63;;;17.22;100.00
51781;BME280;37844;57.126;24.288;2023-09-30T03:18:40;101109.22;;;17.22;100.00
51781;BME280;37844;57.126;24.288;2023-09-30T03:21:24;101108.34;;;17.20;100.00
51781;BME280;37844;57.126;24.288;2023-09-30T03:24:09;101106.59;;;17.24;100.00
51781;BME280;37844;57.126;24.288;2023-09-30T03:26:53;101098.78;;;17.22;100.00
51781;BME280;37844;57.126;24.288;2023-09-30T03:29:37;101093.66;;;17.16;100.00
51781;BME280;37844;57.126;24.288;2023-09-30T03:32:21;101097.94;;;17.20;100.00
51781;BME280;37844;57.126;24.288;2023-09-30T03:35:09;101089.28;;;17.15;100.00
51781;BME280;37844;57.126;24.288;2023-09-30T03:37:54;101091.91;;;17.15;100.00
51781;BME280;37844;57.126;24.288;2023-09-30T03:40:39;101089.34;;;17.12;100.00
51781;BME280;37844;57.126;24.288;2023-09-30T03:43:25;101085.84;;;17.14;100.00
51781;BME280;37844;57.126;24.288;2023-09-30T03:46:09;101089.25;;;17.23;100.00
51781;BME280;37844;57.126;24.288;2023-09-30T03:48:53;101070.97;;;17.24;100.00
51781;BME280;37844;57.126;24.288;2023-09-30T03:51:39;101076.22;;;17.20;100.00
51781;BME280;37844;57.126;24.288;2023-09-30T03:54:24;101085.75;;;17.25;100.00
51781;BME280;37844;57.126;24.288;2023-09-30T03:57:08;101081.41;;;17.24;100.00
51781;BME280;37844;57.126;24.288;2023-09-30T03:59:52;101069.31;;;17.19;100.00
51781;BME280;37844;57.126;24.288;2023-09-30T04:02:37;101077.97;;;17.17;100.00
51781;BME280;37844;57.126;24.288;2023-09-30T04:05:21;101075.41;;;17.16;100.00
51781;BME280;37844;57.126;24.288;2023-09-30T04:08:24;101083.28;;;17.10;100.00
51781;BME280;37844;57.126;24.288;2023-09-30T04:11:08;101084.13;;;17.13;100.00
51781;BME280;37844;57.126;24.288;2023-09-30T04:13:53;101080.66;;;17.10;100.00
51781;BME280;37844;57.126;24.288;2023-09-30T04:16:37;101065.09;;;17.01;100.00
51781;BME280;37844;57.126;24.288;2023-09-30T04:19:22;101078.88;;;17.18;100.00
51781;BME280;37844;57.126;24.288;2023-09-30T04:22:06;101066.66;;;17.23;100.00
51781;BME280;37844;57.126;24.288;2023-09-30T04:24:50;101064.97;;;17.17;100.00
51781;BME280;37844;57.126;24.288;2023-09-30T04:27:34;101068.44;;;17.18;100.00
51781;BME280;37844;57.126;24.288;2023-09-30T04:30:19;101055.44;;;17.16;100.00
51781;BME280;37844;57.126;24.288;2023-09-30T04:33:06;101067.59;;;17.13;100.00
51781;BME280;37844;57.126;24.288;2023-09-30T04:35:51;101058.13;;;17.06;100.00
51781;BME280;37844;57.126;24.288;2023-09-30T04:38:35;101063.31;;;17.09;100.00
51781;BME280;37844;57.126;24.288;2023-09-30T04:41:22;101054.56;;;17.14;100.00
51781;BME280;37844;57.126;24.288;2023-09-30T04:44:09;101056.25;;;17.22;100.00
51781;BME280;37844;57.126;24.288;2023-09-30T04:46:53;101058.84;;;17.23;100.00
51781;BME280;37844;57.126;24.288;2023-09-30T04:49:40;101055.38;;;17.21;100.00
51781;BME280;37844;57.126;24.288;2023-09-30T04:52:24;101062.31;;;17.22;100.00
51781;BME280;37844;57.126;24.288;2023-09-30T04:55:11;101071.84;;;17.28;100.00
51781;BME280;37844;57.126;24.288;2023-09-30T04:58:00;101064.03;;;17.25;100.00
51781;BME280;37844;57.126;24.288;2023-09-30T05:00:44;101069.19;;;17.31;100.00
51781;BME280;37844;57.126;24.288;2023-09-30T05:03:27;101076.06;;;17.40;100.00
51781;BME280;37844;57.126;24.288;2023-09-30T05:06:11;101070.78;;;17.46;100.00
51781;BME280;37844;57.126;24.288;2023-09-30T05:08:56;101061.19;;;17.46;100.00
51781;BME280;37844;57.126;24.288;2023-09-30T05:11:40;101060.28;;;17.50;100.00
51781;BME280;37844;57.126;24.288;2023-09-30T05:14:24;101070.81;;;17.43;100.00
51781;BME280;37844;57.126;24.288;2023-09-30T05:17:08;101072.47;;;17.51;100.00
51781;BME280;37844;57.126;24.288;2023-09-30T05:19:52;101070.69;;;17.55;100.00
51781;BME280;37844;57.126;24.288;2023-09-30T05:22:37;101069.81;;;17.53;100.00
51781;BME280;37844;57.126;24.288;2023-09-30T05:25:22;101075.84;;;17.58;100.00
51781;BME280;37844;57.126;24.288;2023-09-30T05:28:10;101072.34;;;17.64;100.00
51781;BME280;37844;57.126;24.288;2023-09-30T05:30:55;101064.47;;;17.65;100.00
51781;BME280;37844;57.126;24.288;2023-09-30T05:33:39;101074.94;;;17.60;100.00
51781;BME280;37844;57.126;24.288;2023-09-30T05:36:23;101078.50;;;17.56;100.00
51781;BME280;37844;57.126;24.288;2023-09-30T05:39:08;101069.69;;;17.67;100.00
51781;BME280;37844;57.126;24.288;2023-09-30T05:41:54;101080.16;;;17.60;100.00
51781;BME280;37844;57.126;24.288;2023-09-30T05:44:39;101090.53;;;17.67;100.00
51781;BME280;37844;57.126;24.288;2023-09-30T05:47:25;101078.34;;;17.69;100.00
51781;BME280;37844;57.126;24.288;2023-09-30T05:50:09;101084.38;;;17.72;100.00
51781;BME280;37844;57.126;24.288;2023-09-30T05:52:54;101083.56;;;17.69;100.00
51781;BME280;37844;57.126;24.288;2023-09-30T05:55:38;101083.56;;;17.70;100.00
51781;BME280;37844;57.126;24.288;2023-09-30T05:58:23;101082.84;;;17.56;100.00
51781;BME280;37844;57.126;24.288;2023-09-30T06:01:10;101078.44;;;17.59;100.00
51781;BME280;37844;57.126;24.288;2023-09-30T06:03:54;101089.69;;;17.68;100.00
51781;BME280;37844;57.126;24.288;2023-09-30T06:06:39;101093.19;;;17.62;100.00
51781;BME280;37844;57.126;24.288;2023-09-30T06:09:23;101097.50;;;17.66;100.00
51781;BME280;37844;57.126;24.288;2023-09-30T06:12:09;101080.94;;;17.70;100.00
51781;BME280;37844;57.126;24.288;2023-09-30T06:14:55;101083.56;;;17.70;100.00
51781;BME280;37844;57.126;24.288;2023-09-30T06:17:40;101068.88;;;17.63;100.00
51781;BME280;37844;57.126;24.288;2023-09-30T06:20:24;101072.25;;;17.70;100.00
51781;BME280;37844;57.126;24.288;2023-09-30T06:23:10;101076.56;;;17.72;100.00
51781;BME280;37844;57.126;24.288;2023-09-30T06:25:54;101082.72;;;17.68;100.00
51781;BME280;37844;57.126;24.288;2023-09-30T06:28:38;101069.72;;;17.60;100.00
51781;BME280;37844;57.126;24.288;2023-09-30T06:31:24;101059.41;;;17.54;100.00
51781;BME280;37844;57.126;24.288;2023-09-30T06:34:08;101062.84;;;17.56;100.00
51781;BME280;37844;57.126;24.288;2023-09-30T06:36:55;101065.47;;;17.55;100.00
51781;BME280;37844;57.126;24.288;2023-09-30T06:39:39;101060.22;;;17.58;100.00
51781;BME280;37844;57.126;24.288;2023-09-30T06:42:24;101053.13;;;17.69;100.00
51781;BME280;37844;57.126;24.288;2023-09-30T06:45:08;101049.66;;;17.70;100.00
51781;BME280;37844;57.126;24.288;2023-09-30T06:47:54;101056.50;;;17.79;100.00
51781;BME280;37844;57.126;24.288;2023-09-30T06:50:46;101061.66;;;17.87;100.00
51781;BME280;37844;57.126;24.288;2023-09-30T06:53:32;101065.19;;;17.83;100.00
51781;BME280;37844;57.126;24.288;2023-09-30T06:56:16;101072.13;;;17.79;100.00
51781;BME280;37844;57.126;24.288;2023-09-30T06:59:01;101061.72;;;17.79;100.00
51781;BME280;37844;57.126;24.288;2023-09-30T07:01:45;101064.19;;;17.91;100.00
51781;BME280;37844;57.126;24.288;2023-09-30T07:04:29;101059.66;;;18.09;100.00
51781;BME280;37844;57.126;24.288;2023-09-30T07:07:13;101044.13;;;18.60;100.00
51781;BME280;37844;57.126;24.288;2023-09-30T07:09:59;101044.72;;;19.30;100.00
51781;BME280;37844;57.126;24.288;2023-09-30T07:12:43;101040.28;;;19.82;100.00
51781;BME280;37844;57.126;24.288;2023-09-30T07:15:27;101044.78;;;20.14;100.00
51781;BME280;37844;57.126;24.288;2023-09-30T07:18:11;101041.63;;;20.00;100.00
51781;BME280;37844;57.126;24.288;2023-09-30T07:20:55;101031.16;;;19.56;100.00
51781;BME280;37844;57.126;24.288;2023-09-30T07:23:40;101025.34;;;19.42;100.00
51781;BME280;37844;57.126;24.288;2023-09-30T07:26:25;101027.22;;;19.80;100.00
51781;BME280;37844;57.126;24.288;2023-09-30T07:29:10;101022.28;;;20.46;100.00
51781;BME280;37844;57.126;24.288;2023-09-30T07:31:54;101021.06;;;20.96;100.00
51781;BME280;37844;57.126;24.288;2023-09-30T07:34:38;101018.66;;;20.87;100.00
51781;BME280;37844;57.126;24.288;2023-09-30T07:37:22;101016.22;;;20.81;100.00
51781;BME280;37844;57.126;24.288;2023-09-30T07:40:06;101021.59;;;20.75;100.00
51781;BME280;37844;57.126;24.288;2023-09-30T07:42:51;101021.78;;;21.02;100.00
51781;BME280;37844;57.126;24.288;2023-09-30T07:45:35;101012.63;;;21.18;100.00
51781;BME280;37844;57.126;24.288;2023-09-30T07:48:19;101005.91;;;21.08;100.00
51781;BME280;37844;57.126;24.288;2023-09-30T07:51:04;101008.69;;;21.34;100.00
51781;BME280;37844;57.126;24.288;2023-09-30T07:53:50;101015.69;;;21.34;100.00
51781;BME280;37844;57.126;24.288;2023-09-30T07:56:34;101015.47;;;21.43;100.00
51781;BME280;37844;57.126;24.288;2023-09-30T07:59:18;101011.78;;;21.16;100.00
51781;BME280;37844;57.126;24.288;2023-09-30T08:02:03;101025.78;;;20.82;100.00
51781;BME280;37844;57.126;24.288;2023-09-30T08:04:48;101018.22;;;20.32;100.00
51781;BME280;37844;57.126;24.288;2023-09-30T08:07:34;101016.19;;;20.05;100.00
51781;BME280;37844;57.126;24.288;2023-09-30T08:10:18;101026.00;;;19.97;100.00
51781;BME280;37844;57.126;24.288;2023-09-30T08:13:03;101020.41;;;19.72;100.00
51781;BME280;37844;57.126;24.288;2023-09-30T08:15:47;101030.09;;;19.68;100.00
51781;BME280;37844;57.126;24.288;2023-09-30T08:18:32;101021.78;;;19.46;100.00
51781;BME280;37844;57.126;24.288;2023-09-30T08:21:16;101020.59;;;19.16;100.00
51781;BME280;37844;57.126;24.288;2023-09-30T08:24:02;101021.38;;;19.21;100.00
51781;BME280;37844;57.126;24.288;2023-09-30T08:26:46;101023.91;;;19.24;100.00
51781;BME280;37844;57.126;24.288;2023-09-30T08:29:33;101031.72;;;19.25;100.00
51781;BME280;37844;57.126;24.288;2023-09-30T08:32:17;101026.50;;;19.27;100.00
51781;BME280;37844;57.126;24.288;2023-09-30T08:35:02;101036.09;;;19.25;100.00
51781;BME280;37844;57.126;24.288;2023-09-30T08:37:50;101028.34;;;19.20;100.00
51781;BME280;37844;57.126;24.288;2023-09-30T08:40:34;101034.38;;;19.24;100.00
51781;BME280;37844;57.126;24.288;2023-09-30T08:43:22;101030.28;;;19.11;100.00
51781;BME280;37844;57.126;24.288;2023-09-30T08:46:11;101029.34;;;19.13;100.00
51781;BME280;37844;57.126;24.288;2023-09-30T08:49:00;101026.59;;;19.19;100.00
51781;BME280;37844;57.126;24.288;2023-09-30T08:51:45;100980.81;;;19.00;100.00
51781;BME280;37844;57.126;24.288;2023-09-30T08:54:33;101019.59;;;19.21;100.00
51781;BME280;37844;57.126;24.288;2023-09-30T08:57:18;101018.66;;;19.25;100.00
51781;BME280;37844;57.126;24.288;2023-09-30T09:00:04;101024.66;;;19.32;100.00
51781;BME280;37844;57.126;24.288;2023-09-30T09:02:49;101025.53;;;19.31;100.00
51781;BME280;37844;57.126;24.288;2023-09-30T09:05:34;101028.34;;;19.20;100.00
51781;BME280;37844;57.126;24.288;2023-09-30T09:08:18;101037.03;;;19.22;100.00
51781;BME280;37844;57.126;24.288;2023-09-30T09:11:08;101036.97;;;19.25;100.00
51781;BME280;37844;57.126;24.288;2023-09-30T09:13:53;101049.31;;;19.17;100.00
51781;BME280;37844;57.126;24.288;2023-09-30T09:16:54;101046.88;;;19.08;100.00
51781;BME280;37844;57.126;24.288;2023-09-30T09:19:38;101046.03;;;19.04;100.00
51781;BME280;37844;57.126;24.288;2023-09-30T09:22:22;101051.41;;;18.97;100.00
51781;BME280;37844;57.126;24.288;2023-09-30T09:25:06;101045.19;;;19.02;100.00
51781;BME280;37844;57.126;24.288;2023-09-30T09:27:51;101046.03;;;19.04;100.00
51781;BME280;37844;57.126;24.288;2023-09-30T09:30:38;101055.34;;;19.21;100.00
51781;BME280;37844;57.126;24.288;2023-09-30T09:33:35;101061.41;;;19.21;100.00
51781;BME280;37844;57.126;24.288;2023-09-30T09:36:20;101068.56;;;19.12;100.00
51781;BME280;37844;57.126;24.288;2023-09-30T09:39:04;101067.25;;;18.86;100.00
51781;BME280;37844;57.126;24.288;2023-09-30T09:41:52;101067.47;;;18.69;100.00
51781;BME280;37844;57.126;24.288;2023-09-30T09:44:37;101068.16;;;18.85;100.00
51781;BME280;37844;57.126;24.288;2023-09-30T09:47:23;101076.00;;;18.83;100.00
51781;BME280;37844;57.126;24.288;2023-09-30T09:50:08;101077.59;;;18.92;100.00
51781;BME280;37844;57.126;24.288;2023-09-30T09:52:54;101078.28;;;19.03;100.00
51781;BME280;37844;57.126;24.288;2023-09-30T09:55:41;101080.56;;;19.23;100.00
51781;BME280;37844;57.126;24.288;2023-09-30T09:58:26;101087.84;;;19.54;100.00
51781;BME280;37844;57.126;24.288;2023-09-30T10:01:11;101080.38;;;19.82;100.00
51781;BME280;37844;57.126;24.288;2023-09-30T10:03:56;101078.31;;;19.97;100.00
51781;BME280;37844;57.126;24.288;2023-09-30T10:06:43;101081.19;;;20.26;100.00
51781;BME280;37844;57.126;24.288;2023-09-30T10:09:34;101087.28;;;20.67;100.00
51781;BME280;37844;57.126;24.288;2023-09-30T10:12:19;101071.06;;;20.87;100.00
51781;BME280;37844;57.126;24.288;2023-09-30T10:15:38;101068.09;;;21.03;100.00
51781;BME280;37844;57.126;24.288;2023-09-30T10:18:23;101077.91;;;21.29;100.00
51781;BME280;37844;57.126;24.288;2023-09-30T10:21:08;101077.50;;;21.44;100.00
51781;BME280;37844;57.126;24.288;2023-09-30T10:30:07;101085.03;;;21.56;100.00
51781;BME280;37844;57.126;24.288;2023-09-30T10:35:45;101086.72;;;21.59;100.00
51781;BME280;37844;57.126;24.288;2023-09-30T10:44:34;101092.50;;;21.72;100.00
51781;BME280;37844;57.126;24.288;2023-09-30T10:47:35;101090.13;;;21.63;100.00
51781;BME280;37844;57.126;24.288;2023-09-30T10:50:48;101095.84;;;21.46;100.00
51781;BME280;37844;57.126;24.288;2023-09-30T10:53:34;101098.34;;;21.50;100.00
51781;BME280;37844;57.126;24.288;2023-09-30T10:56:20;101104.53;;;21.48;100.00
51781;BME280;37844;57.126;24.288;2023-09-30T10:59:04;101107.16;;;21.48;100.00
51781;BME280;37844;57.126;24.288;2023-09-30T11:01:52;101109.59;;;21.54;100.00
51781;BME280;37844;57.126;24.288;2023-09-30T11:04:46;101128.13;;;21.48;100.00
51781;BME280;37844;57.126;24.288;2023-09-30T11:07:30;101115.19;;;21.40;100.00
51781;BME280;37844;57.126;24.288;2023-09-30T11:10:17;101120.03;;;21.57;100.00
51781;BME280;37844;57.126;24.288;2023-09-30T11:13:01;101128.97;;;21.50;100.00
51781;BME280;37844;57.126;24.288;2023-09-30T11:15:46;101129.56;;;21.59;100.00
51781;BME280;37844;57.126;24.288;2023-09-30T11:18:31;101128.97;;;21.50;100.00
51781;BME280;37844;57.126;24.288;2023-09-30T11:21:16;101135.06;;;21.50;100.00
51781;BME280;37844;57.126;24.288;2023-09-30T11:24:01;101129.47;;;21.64;100.00
51781;BME280;37844;57.126;24.288;2023-09-30T11:26:45;101129.06;;;21.78;100.00
51781;BME280;37844;57.126;24.288;2023-09-30T11:29:30;101134.63;;;21.67;100.00
51781;BME280;37844;57.126;24.288;2023-09-30T11:32:25;101146.13;;;21.62;100.00
51781;BME280;37844;57.126;24.288;2023-09-30T11:35:23;101146.53;;;21.46;100.00
51781;BME280;37844;57.126;24.288;2023-09-30T11:38:07;101136.31;;;21.34;100.00
51781;BME280;37844;57.126;24.288;2023-09-30T11:41:02;101146.69;;;21.38;99.18
51781;BME280;37844;57.126;24.288;2023-09-30T11:44:04;101150.28;;;21.34;97.04
51781;BME280;37844;57.126;24.288;2023-09-30T11:46:57;101160.81;;;21.33;96.53
51781;BME280;37844;57.126;24.288;2023-09-30T11:49:44;101148.59;;;21.33;97.61
51781;BME280;37844;57.126;24.288;2023-09-30T11:52:34;101164.19;;;21.39;96.65
51781;BME280;37844;57.126;24.288;2023-09-30T11:55:20;101165.41;;;21.25;92.65
51781;BME280;37844;57.126;24.288;2023-09-30T11:58:04;101125.97;;;20.93;92.30
51781;BME280;37844;57.126;24.288;2023-09-30T12:00:48;101165.41;;;21.25;92.68
51781;BME280;37844;57.126;24.288;2023-09-30T12:03:34;101171.28;;;21.34;89.60
51781;BME280;37844;57.126;24.288;2023-09-30T12:06:24;101164.72;;;21.16;90.76
51781;BME280;37844;57.126;24.288;2023-09-30T12:09:08;101174.19;;;21.24;90.59
51781;BME280;37844;57.126;24.288;2023-09-30T12:11:57;101172.44;;;21.23;89.46
51781;BME280;37844;57.126;24.288;2023-09-30T12:14:41;101173.78;;;21.03;87.06
51781;BME280;37844;57.126;24.288;2023-09-30T12:17:26;101178.50;;;20.87;86.01
51781;BME280;37844;57.126;24.288;2023-09-30T12:20:10;101186.38;;;20.87;87.05
51781;BME280;37844;57.126;24.288;2023-09-30T12:22:58;101176.91;;;20.82;85.43
51781;BME280;37844;57.126;24.288;2023-09-30T12:25:42;101185.91;;;20.70;86.84
51781;BME280;37844;57.126;24.288;2023-09-30T12:28:25;101189.44;;;20.67;88.55
51781;BME280;37844;57.126;24.288;2023-09-30T12:31:11;101180.59;;;20.71;90.65
51781;BME280;37844;57.126;24.288;2023-09-30T12:33:57;101194.16;;;20.90;89.95
51781;BME280;37844;57.126;24.288;2023-09-30T12:36:42;101184.88;;;20.77;87.90
51781;BME280;37844;57.126;24.288;2023-09-30T12:39:26;101187.06;;;20.55;86.71
51781;BME280;37844;57.126;24.288;2023-09-30T12:42:14;101201.13;;;20.51;87.97
51781;BME280;37844;57.126;24.288;2023-09-30T12:44:59;101192.50;;;20.44;86.77
51781;BME280;37844;57.126;24.288;2023-09-30T12:47:44;101188.56;;;20.25;87.62
51781;BME280;37844;57.126;24.288;2023-09-30T12:50:29;101197.09;;;20.33;90.40
51781;BME280;37844;57.126;24.288;2023-09-30T12:53:13;101192.69;;;20.37;89.03
51781;BME280;37844;57.126;24.288;2023-09-30T12:55:58;101191.34;;;20.16;85.67
51781;BME280;37844;57.126;24.288;2023-09-30T12:58:43;101195.75;;;20.13;86.94
51781;BME280;37844;57.126;24.288;2023-09-30T13:01:28;101194.81;;;20.18;87.75
51781;BME280;37844;57.126;24.288;2023-09-30T13:04:12;101204.38;;;20.19;88.46
51781;BME280;37844;57.126;24.288;2023-09-30T13:06:56;101190.00;;;19.96;89.37
51781;BME280;37844;57.126;24.288;2023-09-30T13:09:41;101196.06;;;19.98;93.46
51781;BME280;37844;57.126;24.288;2023-09-30T13:12:27;101197.78;;;19.99;90.79
51781;BME280;37844;57.126;24.288;2023-09-30T13:15:11;101195.31;;;19.90;92.95
51781;BME280;37844;57.126;24.288;2023-09-30T13:17:58;101193.69;;;19.84;92.12
51781;BME280;37844;57.126;24.288;2023-09-30T13:20:42;101187.47;;;19.91;90.22
51781;BME280;37844;57.126;24.288;2023-09-30T13:23:26;101194.66;;;19.79;91.51
51781;BME280;37844;57.126;24.288;2023-09-30T13:26:11;101198.84;;;19.87;92.97
51781;BME280;37844;57.126;24.288;2023-09-30T13:28:55;101177.06;;;19.88;91.45
51781;BME280;37844;57.126;24.288;2023-09-30T13:31:39;101187.63;;;19.82;92.14
51781;BME280;37844;57.126;24.288;2023-09-30T13:34:23;101192.91;;;19.79;91.56
51781;BME280;37844;57.126;24.288;2023-09-30T13:37:07;101188.75;;;19.67;92.52
51781;BME280;37844;57.126;24.288;2023-09-30T13:39:51;101190.38;;;19.75;93.99
51781;BME280;37844;57.126;24.288;2023-09-30T13:42:35;101192.94;;;19.76;93.95
51781;BME280;37844;57.126;24.288;2023-09-30T13:45:20;101194.06;;;19.60;92.79
51781;BME280;37844;57.126;24.288;2023-09-30T13:48:04;101195.75;;;19.65;93.45
51781;BME280;37844;57.126;24.288;2023-09-30T13:50:48;101197.59;;;19.59;93.31
51781;BME280;37844;57.126;24.288;2023-09-30T13:53:32;101201.25;;;19.48;92.27
51781;BME280;37844;57.126;24.288;2023-09-30T13:56:16;101197.16;;;19.32;92.85
51781;BME280;37844;57.126;24.288;2023-09-30T13:59:01;101196.47;;;19.21;95.93
51781;BME280;37844;57.126;24.288;2023-09-30T14:01:45;101193.13;;;19.13;95.86
51781;BME280;37844;57.126;24.288;2023-09-30T14:04:31;101189.59;;;19.15;95.16
51781;BME280;37844;57.126;24.288;2023-09-30T14:07:15;101189.63;;;19.14;96.64
51781;BME280;37844;57.126;24.288;2023-09-30T14:10:06;101191.31;;;19.16;96.05
51781;BME280;37844;57.126;24.288;2023-09-30T14:12:50;101193.94;;;19.15;96.53
51781;BME280;37844;57.126;24.288;2023-09-30T14:15:34;101192.22;;;19.14;98.66
51781;BME280;37844;57.126;24.288;2023-09-30T14:18:18;101185.25;;;19.14;99.14
51781;BME280;37844;57.126;24.288;2023-09-30T14:21:03;101187.13;;;19.06;97.88